Time;durP1;ratioP1;P1;durP2;ratioP2;P2;SDS_P1;SDS_P2;PMS_P1;PMS_P2;Temp;Humidity;BMP_temperature;BMP_pressure;BME280_temperature;BME280_humidity;BME280_pressure;Samples;Min_cycle;Max_cycle;Signal;HPM_P1;HPM_P2
2022/04/03 00:00:46;;;;;;;;;;;;;;;;;;4999045;28;1605;-60
2022/04/03 00:03:11;;;;;;;;;;;;;;;;;;5032837;28;857;-60
2022/04/03 00:05:41;;;;;;;;;;;;;;;;;;5031491;28;936;-60
2022/04/03 00:08:08;;;;;;;;;;;;;;;;;;5015932;28;880;-60
2022/04/03 00:10:33;;;;;;;;;;;;;;;;;;5032121;28;919;-60
2022/04/03 00:12:58;;;;;;;;;;;;;;;;;;5032900;28;1966;-60
2022/04/03 00:15:24;;;;;;;;;;;;;;;;;;5032212;28;852;-61
2022/04/03 00:17:49;;;;;;;;;;;;;;;;;;5032704;28;817;-61
2022/04/03 00:20:16;;;;;;;;;;;;;;;;;;5032378;28;841;-60
2022/04/03 00:22:43;;;;;;;;;;;;;;;;;;5031905;28;885;-60
2022/04/03 00:25:11;;;;;;;;;;;;;;;;;;5032522;28;825;-61
2022/04/03 00:27:36;;;;;;;;;;;;;;;;;;5032008;28;888;-60
2022/04/03 00:30:02;;;;;;;;;;;;;;;;;;5032648;28;833;-60
2022/04/03 00:32:27;;;;;;;;;;;;;;;;;;5032232;28;659;-59
2022/04/03 00:34:52;;;;;;;;;;;;;;;;;;5032601;28;1898;-60
2022/04/03 00:37:17;;;;;;;;;;;;;;;;;;5032477;28;1017;-60
2022/04/03 00:39:43;;;;;;;;;;;;;;;;;;5014452;28;1699;-60
2022/04/03 00:42:09;;;;;;;;;;;;;;;;;;5032816;28;834;-60
2022/04/03 00:44:35;;;;;;;;;;;;;;;;;;5032189;28;1013;-60
2022/04/03 00:47:01;;;;;;;;;;;;;;;;;;5032388;28;822;-60
2022/04/03 00:49:27;;;;;;;;;;;;;;;;;;5032487;28;841;-60
2022/04/03 00:51:52;;;;;;;;;;;;;;;;;;5014371;28;971;-60
2022/04/03 00:54:17;;;;;;;;;;;;;;;;;;5032513;28;1938;-60
2022/04/03 00:56:42;;;;;;;;;;;;;;;;;;5032067;28;928;-61
2022/04/03 00:59:09;;;;;;;;;;;;;;;;;;5032631;28;934;-59
2022/04/03 01:01:34;;;;;;;;;;;;;;;;;;5031610;28;932;-60
2022/04/03 01:03:59;;;;;;;;;;;;;;;;;;5032084;28;1047;-60
2022/04/03 01:06:25;;;;;;;;;;;;;;;;;;5031386;28;927;-60
2022/04/03 01:08:50;;;;;;;;;;;;;;;;;;5031219;28;944;-60
2022/04/03 01:11:20;;;;;;;;;;;;;;;;;;5031524;28;814;-61
2022/04/03 01:13:47;;;;;;;;;;;;;;;;;;5031763;28;1902;-60
2022/04/03 01:16:12;;;;;;;;;;;;;;;;;;5030788;28;891;-60
2022/04/03 01:18:37;;;;;;;;;;;;;;;;;;5031302;28;1036;-60
2022/04/03 01:21:03;;;;;;;;;;;;;;;;;;5031480;28;964;-60
2022/04/03 01:23:28;;;;;;;;;;;;;;;;;;5031112;28;861;-60
2022/04/03 01:25:53;;;;;;;;;;;;;;;;;;5031549;28;821;-60
2022/04/03 01:28:18;;;;;;;;;;;;;;;;;;5031293;28;810;-60
2022/04/03 01:30:44;;;;;;;;;;;;;;;;;;5031358;28;934;-60
2022/04/03 01:33:09;;;;;;;;;;;;;;;;;;5046735;28;1959;-60
2022/04/03 01:35:34;;;;;;;;;;;;;;;;;;5030761;28;837;-60
2022/04/03 01:38:00;;;;;;;;;;;;;;;;;;5031575;28;904;-60
2022/04/03 01:40:25;;;;;;;;;;;;;;;;;;5030543;28;1165;-61
2022/04/03 01:42:50;;;;;;;;;;;;;;;;;;5030999;28;836;-60
2022/04/03 01:45:16;;;;;;;;;;;;;;;;;;5031036;28;825;-60
2022/04/03 01:47:41;;;;;;;;;;;;;;;;;;5030323;28;936;-61
2022/04/03 01:50:07;;;;;;;;;;;;;;;;;;5030626;28;888;-60
2022/04/03 01:52:32;;;;;;;;;;;;;;;;;;5030759;28;1030;-60
2022/04/03 01:54:59;;;;;;;;;;;;;;;;;;4996367;28;1914;-60
2022/04/03 01:57:24;;;;;;;;;;;;;;;;;;5013106;28;1314;-60
2022/04/03 01:59:50;;;;;;;;;;;;;;;;;;5030709;28;983;-61
2022/04/03 02:02:15;;;;;;;;;;;;;;;;;;5012906;28;1069;-60
2022/04/03 02:04:40;;;;;;;;;;;;;;;;;;5030092;28;825;-60
2022/04/03 02:07:06;;;;;;;;;;;;;;;;;;5030403;28;904;-60
2022/04/03 02:09:31;;;;;;;;;;;;;;;;;;5029849;28;886;-61
2022/04/03 02:11:57;;;;;;;;;;;;;;;;;;5030295;28;814;-60
2022/04/03 02:14:24;;;;;;;;;;;;;;;;;;5030358;28;1961;-60
2022/04/03 02:16:54;;;;;;;;;;;;;;;;;;5030237;28;825;-61
2022/04/03 02:19:20;;;;;;;;;;;;;;;;;;5030596;28;979;-61
2022/04/03 02:21:45;;;;;;;;;;;;;;;;;;5013059;28;1636;-60
2022/04/03 02:24:10;;;;;;;;;;;;;;;;;;5030510;28;849;-61
2022/04/03 02:26:36;;;;;;;;;;;;;;;;;;5030219;28;864;-60
2022/04/03 02:29:01;;;;;;;;;;;;;;;;;;5033760;28;833;-60
2022/04/03 02:31:26;;;;;;;;;;;;;;;;;;5034176;28;888;-60
2022/04/03 02:33:51;;;;;;;;;;;;;;;;;;5034031;28;1975;-60
2022/04/03 02:36:17;;;;;;;;;;;;;;;;;;5034366;28;889;-60
2022/04/03 02:38:42;;;;;;;;;;;;;;;;;;5034208;28;1266;-60
2022/04/03 02:41:08;;;;;;;;;;;;;;;;;;5034374;28;831;-60
2022/04/03 02:43:33;;;;;;;;;;;;;;;;;;5016170;28;909;-60
2022/04/03 02:45:58;;;;;;;;;;;;;;;;;;5034289;28;821;-60
2022/04/03 02:48:24;;;;;;;;;;;;;;;;;;5033747;28;829;-63
2022/04/03 02:50:49;;;;;;;;;;;;;;;;;;5033978;28;948;-60
2022/04/03 02:53:14;;;;;;;;;;;;;;;;;;5034641;28;1914;-60
2022/04/03 02:55:39;;;;;;;;;;;;;;;;;;5034626;28;758;-60
2022/04/03 02:58:05;;;;;;;;;;;;;;;;;;5034074;28;939;-60
2022/04/03 03:00:33;;;;;;;;;;;;;;;;;;5034307;28;821;-60
2022/04/03 03:02:59;;;;;;;;;;;;;;;;;;5034090;28;896;-60
2022/04/03 03:05:24;;;;;;;;;;;;;;;;;;5034501;28;779;-60
2022/04/03 03:07:49;;;;;;;;;;;;;;;;;;5034235;28;817;-60
2022/04/03 03:10:16;;;;;;;;;;;;;;;;;;5034351;28;822;-60
2022/04/03 03:12:41;;;;;;;;;;;;;;;;;;5034309;28;833;-60
2022/04/03 03:15:07;;;;;;;;;;;;;;;;;;5034030;28;2019;-60
2022/04/03 03:17:33;;;;;;;;;;;;;;;;;;5033644;28;1110;-59
2022/04/03 03:19:58;;;;;;;;;;;;;;;;;;5033914;28;907;-60
2022/04/03 03:22:24;;;;;;;;;;;;;;;;;;5015767;28;841;-59
2022/04/03 03:24:49;;;;;;;;;;;;;;;;;;5033292;28;826;-60
2022/04/03 03:27:14;;;;;;;;;;;;;;;;;;5033769;28;1046;-60
2022/04/03 03:29:39;;;;;;;;;;;;;;;;;;5033307;28;983;-59
2022/04/03 03:32:05;;;;;;;;;;;;;;;;;;5033231;28;899;-60
2022/04/03 03:34:30;;;;;;;;;;;;;;;;;;5032991;28;1972;-60
2022/04/03 03:36:56;;;;;;;;;;;;;;;;;;5033342;28;829;-61
2022/04/03 03:39:21;;;;;;;;;;;;;;;;;;5031810;28;1201;-60
2022/04/03 03:41:46;;;;;;;;;;;;;;;;;;5033062;28;884;-60
2022/04/03 03:44:12;;;;;;;;;;;;;;;;;;5015229;28;1279;-61
2022/04/03 03:46:38;;;;;;;;;;;;;;;;;;5032976;28;1023;-60
2022/04/03 03:49:03;;;;;;;;;;;;;;;;;;5015172;28;1153;-60
2022/04/03 03:51:29;;;;;;;;;;;;;;;;;;5032911;28;807;-60
2022/04/03 03:53:54;;;;;;;;;;;;;;;;;;5032907;28;1947;-60
2022/04/03 03:56:20;;;;;;;;;;;;;;;;;;5033406;28;896;-60
2022/04/03 03:58:45;;;;;;;;;;;;;;;;;;5032861;28;997;-60
2022/04/03 04:01:12;;;;;;;;;;;;;;;;;;5032864;28;870;-60
2022/04/03 04:03:37;;;;;;;;;;;;;;;;;;5032483;28;904;-60
2022/04/03 04:06:03;;;;;;;;;;;;;;;;;;5032662;28;948;-61
2022/04/03 04:08:28;;;;;;;;;;;;;;;;;;5032754;28;821;-60
2022/04/03 04:10:53;;;;;;;;;;;;;;;;;;5032970;28;829;-60
2022/04/03 04:13:19;;;;;;;;;;;;;;;;;;5014864;28;1929;-60
2022/04/03 04:15:44;;;;;;;;;;;;;;;;;;5032500;28;843;-59
2022/04/03 04:18:09;;;;;;;;;;;;;;;;;;5031984;28;1003;-60
2022/04/03 04:20:34;;;;;;;;;;;;;;;;;;5032310;28;809;-60
2022/04/03 04:23:00;;;;;;;;;;;;;;;;;;5032733;28;738;-59
2022/04/03 04:25:25;;;;;;;;;;;;;;;;;;5032323;28;857;-59
2022/04/03 04:27:51;;;;;;;;;;;;;;;;;;5032457;28;987;-60
2022/04/03 04:30:17;;;;;;;;;;;;;;;;;;5032853;28;762;-60
2022/04/03 04:32:42;;;;;;;;;;;;;;;;;;5032704;28;825;-60
2022/04/03 04:35:08;;;;;;;;;;;;;;;;;;5014975;28;1973;-61
2022/04/03 04:37:34;;;;;;;;;;;;;;;;;;5032880;28;817;-60
2022/04/03 04:39:59;;;;;;;;;;;;;;;;;;5032455;28;1204;-60
2022/04/03 04:42:25;;;;;;;;;;;;;;;;;;5032456;28;952;-60
2022/04/03 04:44:50;;;;;;;;;;;;;;;;;;5033036;28;999;-60
2022/04/03 04:47:15;;;;;;;;;;;;;;;;;;5032648;28;1144;-60
2022/04/03 04:49:41;;;;;;;;;;;;;;;;;;5032731;28;1003;-61
2022/04/03 04:52:06;;;;;;;;;;;;;;;;;;5032380;28;786;-60
2022/04/03 04:54:31;;;;;;;;;;;;;;;;;;5031995;28;1911;-60
2022/04/03 04:56:57;;;;;;;;;;;;;;;;;;5032376;28;884;-60
2022/04/03 04:59:22;;;;;;;;;;;;;;;;;;5031888;28;1061;-60
2022/04/03 05:01:48;;;;;;;;;;;;;;;;;;5032252;28;988;-60
2022/04/03 05:04:14;;;;;;;;;;;;;;;;;;5013963;28;881;-60
2022/04/03 05:06:40;;;;;;;;;;;;;;;;;;5031502;28;928;-60
2022/04/03 05:09:05;;;;;;;;;;;;;;;;;;5031204;28;956;-60
2022/04/03 05:11:31;;;;;;;;;;;;;;;;;;5031408;28;841;-60
2022/04/03 05:13:58;;;;;;;;;;;;;;;;;;5031248;28;1902;-60
2022/04/03 05:16:23;;;;;;;;;;;;;;;;;;5031173;28;1054;-60
2022/04/03 05:18:48;;;;;;;;;;;;;;;;;;5043445;28;1200;-60
2022/04/03 05:21:14;;;;;;;;;;;;;;;;;;5049739;28;1153;-59
2022/04/03 05:23:39;;;;;;;;;;;;;;;;;;5049845;28;1149;-60
2022/04/03 05:26:05;;;;;;;;;;;;;;;;;;5050829;28;805;-60
2022/04/03 05:28:30;;;;;;;;;;;;;;;;;;5050632;28;1251;-59
2022/04/03 05:30:55;;;;;;;;;;;;;;;;;;5051050;28;884;-60
2022/04/03 05:33:21;;;;;;;;;;;;;;;;;;5050743;28;1890;-59
2022/04/03 05:35:46;;;;;;;;;;;;;;;;;;5050924;28;825;-59
2022/04/03 05:38:11;;;;;;;;;;;;;;;;;;5050956;28;1009;-59
2022/04/03 05:40:38;;;;;;;;;;;;;;;;;;5050329;28;1034;-61
2022/04/03 05:43:03;;;;;;;;;;;;;;;;;;5050698;28;825;-60
2022/04/03 05:45:28;;;;;;;;;;;;;;;;;;5050420;28;959;-60
2022/04/03 05:47:53;;;;;;;;;;;;;;;;;;5050576;28;857;-59
2022/04/03 05:50:19;;;;;;;;;;;;;;;;;;5050641;28;822;-60
2022/04/03 05:52:48;;;;;;;;;;;;;;;;;;5050886;28;774;-59
2022/04/03 05:55:16;;;;;;;;;;;;;;;;;;5051150;28;2001;-59
2022/04/03 05:57:41;;;;;;;;;;;;;;;;;;5050599;28;885;-60
2022/04/03 06:00:08;;;;;;;;;;;;;;;;;;5050704;28;1015;-59
2022/04/03 06:02:54;;;;;;;;;;;;;;;;;;5052757;28;822;-59
2022/04/03 06:05:23;;;;;;;;;;;;;;;;;;5056767;28;821;-59
2022/04/03 06:07:49;;;;;;;;;;;;;;;;;;5057495;28;786;-59
2022/04/03 06:10:14;;;;;;;;;;;;;;;;;;5038638;28;884;-59
2022/04/03 06:12:52;;;;;;;;;;;;;;;;;;5056917;28;1066;-60
2022/04/03 06:15:18;;;;;;;;;;;;;;;;;;5057435;28;1972;-59
2022/04/03 06:17:43;;;;;;;;;;;;;;;;;;5056252;28;1629;-59
2022/04/03 06:20:08;;;;;;;;;;;;;;;;;;5057016;28;979;-59
2022/04/03 06:22:34;;;;;;;;;;;;;;;;;;5057494;28;904;-59
2022/04/03 06:24:59;;;;;;;;;;;;;;;;;;5039654;28;940;-59
2022/04/03 06:27:26;;;;;;;;;;;;;;;;;;5056870;28;1035;-59
2022/04/03 06:29:51;;;;;;;;;;;;;;;;;;5057579;28;789;-60
2022/04/03 06:32:17;;;;;;;;;;;;;;;;;;5057511;28;891;-61
2022/04/03 06:34:42;;;;;;;;;;;;;;;;;;5057157;28;1961;-60
2022/04/03 06:37:07;;;;;;;;;;;;;;;;;;5057706;28;821;-61
2022/04/03 06:39:33;;;;;;;;;;;;;;;;;;5022201;28;1751;-60
2022/04/03 06:41:58;;;;;;;;;;;;;;;;;;5056999;28;992;-60
2022/04/03 06:44:23;;;;;;;;;;;;;;;;;;5056840;28;810;-61
2022/04/03 06:46:49;;;;;;;;;;;;;;;;;;5058017;28;880;-60
2022/04/03 06:49:14;;;;;;;;;;;;;;;;;;5056733;28;979;-60
2022/04/03 06:51:39;;;;;;;;;;;;;;;;;;5057308;28;873;-60
2022/04/03 06:54:05;;;;;;;;;;;;;;;;;;5057452;28;1902;-60
2022/04/03 06:56:30;;;;;;;;;;;;;;;;;;5056305;28;1494;-61
2022/04/03 06:58:55;;;;;;;;;;;;;;;;;;5057111;28;910;-60
2022/04/03 07:01:21;;;;;;;;;;;;;;;;;;5056668;28;884;-60
2022/04/03 07:03:46;;;;;;;;;;;;;;;;;;5057187;28;840;-61
2022/04/03 07:06:11;;;;;;;;;;;;;;;;;;5056514;28;912;-59
2022/04/03 07:08:37;;;;;;;;;;;;;;;;;;5055975;28;1054;-59
2022/04/03 07:11:03;;;;;;;;;;;;;;;;;;5056604;28;820;-61
2022/04/03 07:13:28;;;;;;;;;;;;;;;;;;5055257;28;1902;-59
2022/04/03 07:15:53;;;;;;;;;;;;;;;;;;5053646;28;901;-59
2022/04/03 07:18:19;;;;;;;;;;;;;;;;;;5053313;28;802;-59
2022/04/03 07:20:48;;;;;;;;;;;;;;;;;;5035101;28;930;-60
2022/04/03 07:23:13;;;;;;;;;;;;;;;;;;5053287;28;817;-59
2022/04/03 07:25:38;;;;;;;;;;;;;;;;;;5034221;28;1340;-59
2022/04/03 07:28:04;;;;;;;;;;;;;;;;;;5053503;28;889;-60
2022/04/03 07:30:29;;;;;;;;;;;;;;;;;;5052781;28;935;-59
2022/04/03 07:32:54;;;;;;;;;;;;;;;;;;5053674;28;805;-60
2022/04/03 07:35:20;;;;;;;;;;;;;;;;;;5035023;28;1964;-60
2022/04/03 07:37:45;;;;;;;;;;;;;;;;;;5018750;28;1370;-60
2022/04/03 07:40:11;;;;;;;;;;;;;;;;;;5052838;28;1301;-60
2022/04/03 07:42:39;;;;;;;;;;;;;;;;;;5052154;28;859;-59
2022/04/03 07:45:07;;;;;;;;;;;;;;;;;;5053460;28;857;-60
2022/04/03 07:47:32;;;;;;;;;;;;;;;;;;5052676;28;841;-60
2022/04/03 07:49:59;;;;;;;;;;;;;;;;;;5053387;28;876;-60
2022/04/03 07:52:24;;;;;;;;;;;;;;;;;;5053125;28;833;-60
2022/04/03 07:54:49;;;;;;;;;;;;;;;;;;5052526;28;1958;-60
2022/04/03 07:57:17;;;;;;;;;;;;;;;;;;5053310;28;1050;-60
2022/04/03 07:59:43;;;;;;;;;;;;;;;;;;5052155;28;935;-60
2022/04/03 08:02:08;;;;;;;;;;;;;;;;;;5034163;28;1482;-60
2022/04/03 08:04:33;;;;;;;;;;;;;;;;;;5052015;28;840;-60
2022/04/03 08:06:58;;;;;;;;;;;;;;;;;;5052355;28;889;-59
2022/04/03 08:09:24;;;;;;;;;;;;;;;;;;5052234;28;778;-60
2022/04/03 08:11:49;;;;;;;;;;;;;;;;;;5053024;28;860;-59
2022/04/03 08:14:14;;;;;;;;;;;;;;;;;;5052317;28;1888;-59
2022/04/03 08:16:40;;;;;;;;;;;;;;;;;;5052635;28;901;-59
2022/04/03 08:19:06;;;;;;;;;;;;;;;;;;5052329;28;869;-59
2022/04/03 08:21:31;;;;;;;;;;;;;;;;;;5052415;28;900;-59
2022/04/03 08:23:56;;;;;;;;;;;;;;;;;;5053011;28;877;-60
2022/04/03 08:26:25;;;;;;;;;;;;;;;;;;5051759;28;813;-60
2022/04/03 08:28:51;;;;;;;;;;;;;;;;;;5052519;28;1214;-60
2022/04/03 08:31:16;;;;;;;;;;;;;;;;;;5052965;28;861;-60
2022/04/03 08:33:42;;;;;;;;;;;;;;;;;;5052393;28;1906;-61
2022/04/03 08:36:07;;;;;;;;;;;;;;;;;;5068118;28;702;-61
2022/04/03 08:38:32;;;;;;;;;;;;;;;;;;5052153;28;845;-60
2022/04/03 08:40:59;;;;;;;;;;;;;;;;;;5052779;28;1070;-60
2022/04/03 08:43:24;;;;;;;;;;;;;;;;;;5052261;28;959;-61
2022/04/03 08:45:51;;;;;;;;;;;;;;;;;;5052383;28;1039;-61
2022/04/03 08:48:19;;;;;;;;;;;;;;;;;;5052640;28;996;-60
2022/04/03 08:50:47;;;;;;;;;;;;;;;;;;5051594;28;841;-61
2022/04/03 08:53:12;;;;;;;;;;;;;;;;;;5051871;28;1906;-61
2022/04/03 08:55:37;;;;;;;;;;;;;;;;;;5051357;28;995;-60
2022/04/03 08:58:03;;;;;;;;;;;;;;;;;;5051616;28;984;-61
2022/04/03 09:00:30;;;;;;;;;;;;;;;;;;5066931;28;1426;-61
2022/04/03 09:02:55;;;;;;;;;;;;;;;;;;5051484;28;801;-61
2022/04/03 09:05:20;;;;;;;;;;;;;;;;;;5051645;28;877;-61
2022/04/03 09:08:01;;;;;;;;;;;;;;;;;;5050952;28;814;-61
2022/04/03 09:10:27;;;;;;;;;;;;;;;;;;5051371;28;809;-61
2022/04/03 09:12:53;;;;;;;;;;;;;;;;;;5033450;28;916;-61
2022/04/03 09:15:19;;;;;;;;;;;;;;;;;;5051516;28;1910;-60
2022/04/03 09:17:48;;;;;;;;;;;;;;;;;;5050491;28;937;-61
2022/04/03 09:20:18;;;;;;;;;;;;;;;;;;5051360;28;852;-61
2022/04/03 09:22:44;;;;;;;;;;;;;;;;;;5050669;28;888;-60
2022/04/03 09:25:11;;;;;;;;;;;;;;;;;;5050997;28;899;-61
2022/04/03 09:27:56;;;;;;;;;;;;;;;;;;5050869;28;828;-61
2022/04/03 09:30:24;;;;;;;;;;;;;;;;;;5050241;28;1706;-59
2022/04/03 09:32:54;;;;;;;;;;;;;;;;;;5050649;28;904;-59
2022/04/03 09:35:21;;;;;;;;;;;;;;;;;;5051313;28;1961;-60
2022/04/03 09:38:05;;;;;;;;;;;;;;;;;;5064961;28;907;-60
2022/04/03 09:40:31;;;;;;;;;;;;;;;;;;5050320;28;1097;-60
2022/04/03 09:43:15;;;;;;;;;;;;;;;;;;5051466;28;936;-60
2022/04/03 09:45:44;;;;;;;;;;;;;;;;;;5050550;28;917;-61
2022/04/03 09:48:25;;;;;;;;;;;;;;;;;;5050564;28;1064;-60
2022/04/03 09:50:57;;;;;;;;;;;;;;;;;;5050523;28;983;-60
2022/04/03 09:53:23;;;;;;;;;;;;;;;;;;5051223;28;1902;-60
2022/04/03 09:55:48;;;;;;;;;;;;;;;;;;5051265;28;916;-60
2022/04/03 09:58:15;;;;;;;;;;;;;;;;;;5033664;28;985;-60
2022/04/03 10:00:41;;;;;;;;;;;;;;;;;;5051077;28;924;-60
2022/04/03 10:03:09;;;;;;;;;;;;;;;;;;5033645;28;825;-60
2022/04/03 10:05:34;;;;;;;;;;;;;;;;;;5050509;28;849;-60
2022/04/03 10:08:00;;;;;;;;;;;;;;;;;;5051154;28;927;-61
2022/04/03 10:10:29;;;;;;;;;;;;;;;;;;5051621;28;817;-60
2022/04/03 10:12:55;;;;;;;;;;;;;;;;;;5050973;28;1007;-60
2022/04/03 10:15:21;;;;;;;;;;;;;;;;;;5050964;28;1959;-60
2022/04/03 10:17:46;;;;;;;;;;;;;;;;;;5051081;28;827;-60
2022/04/03 10:20:11;;;;;;;;;;;;;;;;;;5050932;28;904;-60
2022/04/03 10:22:38;;;;;;;;;;;;;;;;;;5050176;28;881;-60
2022/04/03 10:25:05;;;;;;;;;;;;;;;;;;5050727;28;853;-60
2022/04/03 10:27:32;;;;;;;;;;;;;;;;;;5050586;28;860;-60
2022/04/03 10:29:58;;;;;;;;;;;;;;;;;;5050163;28;975;-61
2022/04/03 10:32:28;;;;;;;;;;;;;;;;;;5050541;28;964;-61
2022/04/03 10:34:56;;;;;;;;;;;;;;;;;;5049596;28;1978;-61
2022/04/03 10:37:32;;;;;;;;;;;;;;;;;;5050119;28;1150;-60
2022/04/03 10:40:03;;;;;;;;;;;;;;;;;;5049947;28;1274;-58
2022/04/03 10:42:30;;;;;;;;;;;;;;;;;;5050406;28;869;-59
2022/04/03 10:45:13;;;;;;;;;;;;;;;;;;5050188;28;1537;-60
2022/04/03 10:47:42;;;;;;;;;;;;;;;;;;5050086;28;900;-60
2022/04/03 10:50:09;;;;;;;;;;;;;;;;;;5053552;28;809;-59
2022/04/03 10:52:37;;;;;;;;;;;;;;;;;;5053987;28;750;-59
2022/04/03 10:55:15;;;;;;;;;;;;;;;;;;5054062;28;1902;-61
2022/04/03 10:57:44;;;;;;;;;;;;;;;;;;5053621;28;1008;-59
2022/04/03 11:00:12;;;;;;;;;;;;;;;;;;5054422;28;892;-65
2022/04/03 11:02:38;;;;;;;;;;;;;;;;;;5054488;28;837;-60
2022/04/03 11:05:22;;;;;;;;;;;;;;;;;;5054049;28;861;-59
2022/04/03 11:07:47;;;;;;;;;;;;;;;;;;5053748;28;908;-64
2022/04/03 11:10:12;;;;;;;;;;;;;;;;;;5053885;28;884;-60
2022/04/03 11:12:53;;;;;;;;;;;;;;;;;;5053541;28;810;-60
2022/04/03 11:15:19;;;;;;;;;;;;;;;;;;5053862;28;1897;-59
2022/04/03 11:17:49;;;;;;;;;;;;;;;;;;5053026;28;904;-59
2022/04/03 11:20:50;;;;;;;;;;;;;;;;;;5053756;28;853;-59
2022/04/03 11:23:16;;;;;;;;;;;;;;;;;;4991669;28;1310;-59
2022/04/03 11:25:42;;;;;;;;;;;;;;;;;;5040631;28;914;-60
2022/04/03 11:28:08;;;;;;;;;;;;;;;;;;5053379;28;822;-60
2022/04/03 11:30:34;;;;;;;;;;;;;;;;;;5053027;28;853;-59
2022/04/03 11:32:59;;;;;;;;;;;;;;;;;;5068623;28;643;-60
2022/04/03 11:35:39;;;;;;;;;;;;;;;;;;5053008;28;1969;-59
2022/04/03 11:38:05;;;;;;;;;;;;;;;;;;5052847;28;835;-60
2022/04/03 11:40:32;;;;;;;;;;;;;;;;;;5053134;28;1046;-60
2022/04/03 11:43:12;;;;;;;;;;;;;;;;;;5035571;28;853;-60
2022/04/03 11:45:37;;;;;;;;;;;;;;;;;;5053112;28;836;-60
2022/04/03 11:48:15;;;;;;;;;;;;;;;;;;5053187;28;845;-60
2022/04/03 11:50:41;;;;;;;;;;;;;;;;;;5053103;28;991;-60
2022/04/03 11:53:07;;;;;;;;;;;;;;;;;;5053281;28;868;-60
2022/04/03 11:55:35;;;;;;;;;;;;;;;;;;5052997;28;1973;-60
2022/04/03 11:58:04;;;;;;;;;;;;;;;;;;5068517;28;1035;-61
2022/04/03 12:00:30;;;;;;;;;;;;;;;;;;5052493;28;902;-60
2022/04/03 12:02:59;;;;;;;;;;;;;;;;;;5052820;28;961;-60
2022/04/03 12:05:24;;;;;;;;;;;;;;;;;;5053265;28;813;-60
2022/04/03 12:07:50;;;;;;;;;;;;;;;;;;5052994;28;833;-60
2022/04/03 12:10:26;;;;;;;;;;;;;;;;;;5053111;28;805;-60
2022/04/03 12:12:53;;;;;;;;;;;;;;;;;;5051954;28;864;-60
2022/04/03 12:15:19;;;;;;;;;;;;;;;;;;5052773;28;1914;-60
2022/04/03 12:17:44;;;;;;;;;;;;;;;;;;5052024;28;1034;-60
2022/04/03 12:20:11;;;;;;;;;;;;;;;;;;5052239;28;897;-60
2022/04/03 12:22:40;;;;;;;;;;;;;;;;;;5052056;28;813;-60
2022/04/03 12:25:05;;;;;;;;;;;;;;;;;;5052286;28;963;-60
2022/04/03 12:27:33;;;;;;;;;;;;;;;;;;5052616;28;770;-60
2022/04/03 12:29:58;;;;;;;;;;;;;;;;;;5052188;28;849;-60
2022/04/03 12:32:27;;;;;;;;;;;;;;;;;;5052351;28;837;-60
2022/04/03 12:34:53;;;;;;;;;;;;;;;;;;5051817;28;1905;-60
2022/04/03 12:37:19;;;;;;;;;;;;;;;;;;5052311;28;817;-60
2022/04/03 12:40:02;;;;;;;;;;;;;;;;;;5051968;28;1060;-60
2022/04/03 12:42:32;;;;;;;;;;;;;;;;;;5067253;28;1327;-60
2022/04/03 12:45:03;;;;;;;;;;;;;;;;;;5051338;28;1635;-60
2022/04/03 12:47:31;;;;;;;;;;;;;;;;;;5051494;28;890;-60
2022/04/03 12:50:05;;;;;;;;;;;;;;;;;;5051300;28;841;-60
2022/04/03 12:52:48;;;;;;;;;;;;;;;;;;5051517;28;900;-60
2022/04/03 13:00:45;;;;;;;;;;;;;;;;;;5051220;28;654;-60
2022/04/03 13:03:10;;;;;;;;;;;;;;;;;;5051397;28;876;-60
2022/04/03 13:05:38;;;;;;;;;;;;;;;;;;5051441;28;801;-60
2022/04/03 13:08:10;;;;;;;;;;;;;;;;;;5051151;28;999;-60
2022/04/03 13:10:49;;;;;;;;;;;;;;;;;;5050876;28;821;-62
2022/04/03 13:13:25;;;;;;;;;;;;;;;;;;5050580;28;970;-60
2022/04/03 13:15:51;;;;;;;;;;;;;;;;;;5050856;28;785;-60
2022/04/03 13:18:16;;;;;;;;;;;;;;;;;;5066595;28;852;-60
2022/04/03 13:20:46;;;;;;;;;;;;;;;;;;5051314;28;657;-59
2022/04/03 13:23:11;;;;;;;;;;;;;;;;;;5051235;28;1003;-60
2022/04/03 13:25:37;;;;;;;;;;;;;;;;;;5051368;28;862;-60
2022/04/03 13:28:02;;;;;;;;;;;;;;;;;;5051378;28;818;-60
2022/04/03 13:30:31;;;;;;;;;;;;;;;;;;5051366;28;901;-60
2022/04/03 13:32:57;;;;;;;;;;;;;;;;;;5051743;28;852;-60
2022/04/03 13:35:23;;;;;;;;;;;;;;;;;;5050839;28;1902;-60
2022/04/03 13:37:48;;;;;;;;;;;;;;;;;;5051602;28;912;-60
2022/04/03 13:40:14;;;;;;;;;;;;;;;;;;5050938;28;1188;-60
2022/04/03 13:42:40;;;;;;;;;;;;;;;;;;5033468;28;906;-60
2022/04/03 13:45:05;;;;;;;;;;;;;;;;;;5033095;28;818;-60
2022/04/03 13:47:30;;;;;;;;;;;;;;;;;;5051629;28;1047;-60
2022/04/03 13:49:56;;;;;;;;;;;;;;;;;;5051237;28;876;-60
2022/04/03 13:52:21;;;;;;;;;;;;;;;;;;5066140;28;939;-60
2022/04/03 13:54:47;;;;;;;;;;;;;;;;;;5051117;28;1913;-60
2022/04/03 13:57:12;;;;;;;;;;;;;;;;;;5051105;28;1490;-60
2022/04/03 13:59:37;;;;;;;;;;;;;;;;;;5051039;28;919;-60
2022/04/03 14:02:03;;;;;;;;;;;;;;;;;;5051232;28;825;-60
2022/04/03 14:04:28;;;;;;;;;;;;;;;;;;5051268;28;856;-60
2022/04/03 14:06:54;;;;;;;;;;;;;;;;;;5050724;28;837;-60
2022/04/03 14:09:20;;;;;;;;;;;;;;;;;;5032657;28;840;-60
2022/04/03 14:11:46;;;;;;;;;;;;;;;;;;5065949;28;1982;-60
2022/04/03 14:14:11;;;;;;;;;;;;;;;;;;5050718;28;1965;-61
2022/04/03 14:16:38;;;;;;;;;;;;;;;;;;5050773;28;900;-61
2022/04/03 14:19:03;;;;;;;;;;;;;;;;;;5050917;28;907;-60
2022/04/03 14:21:29;;;;;;;;;;;;;;;;;;5050800;28;868;-60
2022/04/03 14:23:55;;;;;;;;;;;;;;;;;;5051525;28;884;-60
2022/04/03 14:26:20;;;;;;;;;;;;;;;;;;5069692;28;1676;-60
2022/04/03 14:28:46;;;;;;;;;;;;;;;;;;5036519;28;932;-60
2022/04/03 14:31:11;;;;;;;;;;;;;;;;;;5054199;28;877;-60
2022/04/03 14:33:36;;;;;;;;;;;;;;;;;;5069619;28;1963;-60
2022/04/03 14:36:02;;;;;;;;;;;;;;;;;;5053966;28;876;-59
2022/04/03 14:38:27;;;;;;;;;;;;;;;;;;5054112;28;1198;-59
2022/04/03 14:40:53;;;;;;;;;;;;;;;;;;5053853;28;1337;-60
2022/04/03 14:43:18;;;;;;;;;;;;;;;;;;5052861;28;944;-60
2022/04/03 14:45:43;;;;;;;;;;;;;;;;;;5053368;28;889;-60
2022/04/03 14:48:09;;;;;;;;;;;;;;;;;;5053794;28;790;-60
2022/04/03 14:50:34;;;;;;;;;;;;;;;;;;5069246;28;1646;-60
2022/04/03 14:52:59;;;;;;;;;;;;;;;;;;5053735;28;896;-60
2022/04/03 14:55:26;;;;;;;;;;;;;;;;;;5053695;28;1910;-60
2022/04/03 14:57:51;;;;;;;;;;;;;;;;;;5053713;28;1098;-60
2022/04/03 15:00:17;;;;;;;;;;;;;;;;;;5054035;28;840;-60
2022/04/03 15:02:42;;;;;;;;;;;;;;;;;;5053591;28;892;-60
2022/04/03 15:05:08;;;;;;;;;;;;;;;;;;5053877;28;829;-60
2022/04/03 15:07:35;;;;;;;;;;;;;;;;;;5053608;28;947;-60
2022/04/03 15:10:01;;;;;;;;;;;;;;;;;;5053997;28;856;-60
2022/04/03 15:12:26;;;;;;;;;;;;;;;;;;5053545;28;962;-60
2022/04/03 15:14:55;;;;;;;;;;;;;;;;;;5035630;28;1914;-60
2022/04/03 15:17:20;;;;;;;;;;;;;;;;;;5053836;28;825;-60
2022/04/03 15:19:46;;;;;;;;;;;;;;;;;;5053918;28;785;-61
2022/04/03 15:22:11;;;;;;;;;;;;;;;;;;5053805;28;861;-60
2022/04/03 15:24:37;;;;;;;;;;;;;;;;;;5053469;28;925;-60
2022/04/03 15:27:03;;;;;;;;;;;;;;;;;;5053166;28;1015;-61
2022/04/03 15:29:28;;;;;;;;;;;;;;;;;;5052939;28;968;-60
2022/04/03 15:31:54;;;;;;;;;;;;;;;;;;5053365;28;868;-60
2022/04/03 15:34:20;;;;;;;;;;;;;;;;;;5053277;28;1910;-61
2022/04/03 15:36:47;;;;;;;;;;;;;;;;;;5034497;28;914;-60
2022/04/03 15:39:12;;;;;;;;;;;;;;;;;;5053316;28;1387;-60
2022/04/03 15:41:38;;;;;;;;;;;;;;;;;;5053203;28;888;-60
2022/04/03 15:44:03;;;;;;;;;;;;;;;;;;5053455;28;892;-60
2022/04/03 15:46:28;;;;;;;;;;;;;;;;;;5053407;28;805;-60
2022/04/03 15:48:54;;;;;;;;;;;;;;;;;;5053286;28;793;-60
2022/04/03 15:51:22;;;;;;;;;;;;;;;;;;5053345;28;845;-60
2022/04/03 15:53:51;;;;;;;;;;;;;;;;;;5053057;28;1913;-60
2022/04/03 15:56:17;;;;;;;;;;;;;;;;;;5053253;28;998;-60
2022/04/03 15:58:42;;;;;;;;;;;;;;;;;;5053022;28;1020;-60
2022/04/03 16:01:08;;;;;;;;;;;;;;;;;;5068816;28;1250;-60
2022/04/03 16:03:34;;;;;;;;;;;;;;;;;;5053471;28;917;-60
2022/04/03 16:05:59;;;;;;;;;;;;;;;;;;5052699;28;837;-60
2022/04/03 16:08:25;;;;;;;;;;;;;;;;;;5035083;28;902;-60
2022/04/03 16:10:50;;;;;;;;;;;;;;;;;;5052889;28;884;-59
2022/04/03 16:13:16;;;;;;;;;;;;;;;;;;5035453;28;837;-61
2022/04/03 16:15:41;;;;;;;;;;;;;;;;;;5052764;28;1973;-60
2022/04/03 16:18:07;;;;;;;;;;;;;;;;;;5035233;28;830;-60
2022/04/03 16:20:34;;;;;;;;;;;;;;;;;;5052744;28;801;-60
2022/04/03 16:22:59;;;;;;;;;;;;;;;;;;5052851;28;896;-60
2022/04/03 16:25:24;;;;;;;;;;;;;;;;;;5052918;28;1002;-60
2022/04/03 16:27:50;;;;;;;;;;;;;;;;;;5052549;28;758;-60
2022/04/03 16:30:15;;;;;;;;;;;;;;;;;;5035044;28;923;-60
2022/04/03 16:32:42;;;;;;;;;;;;;;;;;;5052155;28;1003;-60
2022/04/03 16:35:08;;;;;;;;;;;;;;;;;;5052768;28;1922;-60
2022/04/03 16:37:35;;;;;;;;;;;;;;;;;;5052368;28;871;-61
2022/04/03 16:40:03;;;;;;;;;;;;;;;;;;5051895;28;1124;-60
2022/04/03 16:42:28;;;;;;;;;;;;;;;;;;5052044;28;1290;-60
2022/04/03 16:44:53;;;;;;;;;;;;;;;;;;5052706;28;829;-60
2022/04/03 16:47:19;;;;;;;;;;;;;;;;;;5052126;28;916;-60
2022/04/03 16:49:44;;;;;;;;;;;;;;;;;;5051725;28;927;-60
2022/04/03 16:52:09;;;;;;;;;;;;;;;;;;5052104;28;817;-60
2022/04/03 16:54:35;;;;;;;;;;;;;;;;;;5051892;28;1890;-60
2022/04/03 16:57:00;;;;;;;;;;;;;;;;;;5051596;28;817;-59
2022/04/03 16:59:25;;;;;;;;;;;;;;;;;;5051663;28;1080;-60
2022/04/03 17:01:51;;;;;;;;;;;;;;;;;;5051580;28;888;-60
2022/04/03 17:04:16;;;;;;;;;;;;;;;;;;5052252;28;896;-60
2022/04/03 17:06:41;;;;;;;;;;;;;;;;;;5051304;28;877;-60
2022/04/03 17:09:10;;;;;;;;;;;;;;;;;;5051672;28;987;-59
2022/04/03 17:11:35;;;;;;;;;;;;;;;;;;5051372;28;860;-60
2022/04/03 17:14:00;;;;;;;;;;;;;;;;;;5051386;28;1905;-60
2022/04/03 17:16:26;;;;;;;;;;;;;;;;;;5046539;28;1240;-59